sensor_id;sensor_type;location;lat;lon;timestamp;temperature;humidity
6375;DHT22;35400;45.472;-122.822;2022-12-18T00:01:29;5.00;99.90
6375;DHT22;35400;45.472;-122.822;2022-12-18T00:03:58;4.90;99.90
6375;DHT22;35400;45.472;-122.822;2022-12-18T00:06:27;4.80;99.90
6375;DHT22;35400;45.472;-122.822;2022-12-18T00:08:56;4.70;99.90
6375;DHT22;35400;45.472;-122.822;2022-12-18T00:11:26;4.60;99.90
6375;DHT22;35400;45.472;-122.822;2022-12-18T00:13:55;4.50;99.90
6375;DHT22;35400;45.472;-122.822;2022-12-18T00:16:23;4.40;99.90
6375;DHT22;35400;45.472;-122.822;2022-12-18T00:18:53;4.30;99.90
6375;DHT22;35400;45.472;-122.822;2022-12-18T00:21:21;4.20;99.90
6375;DHT22;35400;45.472;-122.822;2022-12-18T00:23:49;4.10;99.90
6375;DHT22;35400;45.472;-122.822;2022-12-18T00:26:24;4.00;99.90
6375;DHT22;35400;45.472;-122.822;2022-12-18T00:28:59;3.90;99.90
6375;DHT22;35400;45.472;-122.822;2022-12-18T00:31:27;3.80;99.90
6375;DHT22;35400;45.472;-122.822;2022-12-18T00:33:55;3.70;99.90
6375;DHT22;35400;45.472;-122.822;2022-12-18T00:36:33;3.60;99.90
6375;DHT22;35400;45.472;-122.822;2022-12-18T00:39:02;3.60;99.90
6375;DHT22;35400;45.472;-122.822;2022-12-18T00:41:30;3.50;99.90
6375;DHT22;35400;45.472;-122.822;2022-12-18T00:44:16;3.40;99.90
6375;DHT22;35400;45.472;-122.822;2022-12-18T00:46:45;3.30;99.90
6375;DHT22;35400;45.472;-122.822;2022-12-18T00:49:12;3.20;99.90
6375;DHT22;35400;45.472;-122.822;2022-12-18T00:51:39;3.10;99.90
6375;DHT22;35400;45.472;-122.822;2022-12-18T00:54:07;3.00;99.90
6375;DHT22;35400;45.472;-122.822;2022-12-18T00:56:36;2.90;99.90
6375;DHT22;35400;45.472;-122.822;2022-12-18T00:59:03;2.90;99.90
6375;DHT22;35400;45.472;-122.822;2022-12-18T01:01:31;2.80;99.90
6375;DHT22;35400;45.472;-122.822;2022-12-18T01:04:01;2.80;99.90
6375;DHT22;35400;45.472;-122.822;2022-12-18T01:06:28;2.70;99.90
6375;DHT22;35400;45.472;-122.822;2022-12-18T01:08:55;2.80;99.90
6375;DHT22;35400;45.472;-122.822;2022-12-18T01:11:22;2.70;99.90
6375;DHT22;35400;45.472;-122.822;2022-12-18T01:13:51;2.70;99.90
6375;DHT22;35400;45.472;-122.822;2022-12-18T01:16:18;2.70;99.90
6375;DHT22;35400;45.472;-122.822;2022-12-18T01:18:45;2.70;99.90
6375;DHT22;35400;45.472;-122.822;2022-12-18T01:21:15;2.70;99.90
6375;DHT22;35400;45.472;-122.822;2022-12-18T01:23:42;2.80;99.90
6375;DHT22;35400;45.472;-122.822;2022-12-18T01:26:14;2.80;99.90
6375;DHT22;35400;45.472;-122.822;2022-12-18T01:28:42;2.80;99.90
6375;DHT22;35400;45.472;-122.822;2022-12-18T01:31:18;2.80;99.90
6375;DHT22;35400;45.472;-122.822;2022-12-18T01:33:46;2.90;99.90
6375;DHT22;35400;45.472;-122.822;2022-12-18T01:38:43;3.00;99.90
6375;DHT22;35400;45.472;-122.822;2022-12-18T01:41:10;3.00;99.90
6375;DHT22;35400;45.472;-122.822;2022-12-18T01:46:19;3.10;99.90
6375;DHT22;35400;45.472;-122.822;2022-12-18T01:48:52;3.10;99.90
6375;DHT22;35400;45.472;-122.822;2022-12-18T01:51:21;3.20;99.90
6375;DHT22;35400;45.472;-122.822;2022-12-18T01:53:48;3.20;99.90
6375;DHT22;35400;45.472;-122.822;2022-12-18T01:56:19;3.30;99.90
6375;DHT22;35400;45.472;-122.822;2022-12-18T01:59:05;3.20;99.90
6375;DHT22;35400;45.472;-122.822;2022-12-18T02:01:33;3.30;99.90
6375;DHT22;35400;45.472;-122.822;2022-12-18T02:04:23;3.30;99.90
6375;DHT22;35400;45.472;-122.822;2022-12-18T02:07:20;3.30;99.90
6375;DHT22;35400;45.472;-122.822;2022-12-18T02:12:45;3.30;99.90
6375;DHT22;35400;45.472;-122.822;2022-12-18T02:15:26;3.40;99.90
6375;DHT22;35400;45.472;-122.822;2022-12-18T02:18:03;3.40;99.90
6375;DHT22;35400;45.472;-122.822;2022-12-18T02:20:58;3.40;99.90
6375;DHT22;35400;45.472;-122.822;2022-12-18T02:26:36;3.40;99.90
6375;DHT22;35400;45.472;-122.822;2022-12-18T02:29:16;3.40;99.90
6375;DHT22;35400;45.472;-122.822;2022-12-18T02:31:57;3.40;99.90
6375;DHT22;35400;45.472;-122.822;2022-12-18T02:34:31;3.40;99.90
6375;DHT22;35400;45.472;-122.822;2022-12-18T02:37:02;3.40;99.90
6375;DHT22;35400;45.472;-122.822;2022-12-18T02:39:32;3.40;99.90
6375;DHT22;35400;45.472;-122.822;2022-12-18T02:42:03;3.40;99.90
6375;DHT22;35400;45.472;-122.822;2022-12-18T02:44:41;3.40;99.90
6375;DHT22;35400;45.472;-122.822;2022-12-18T02:47:14;3.40;99.90
6375;DHT22;35400;45.472;-122.822;2022-12-18T02:50:00;3.40;99.90
6375;DHT22;35400;45.472;-122.822;2022-12-18T02:52:39;3.40;99.90
6375;DHT22;35400;45.472;-122.822;2022-12-18T02:55:25;3.40;99.90
6375;DHT22;35400;45.472;-122.822;2022-12-18T02:58:25;3.40;99.90
6375;DHT22;35400;45.472;-122.822;2022-12-18T03:01:12;3.40;99.90
6375;DHT22;35400;45.472;-122.822;2022-12-18T03:03:42;3.40;99.90
6375;DHT22;35400;45.472;-122.822;2022-12-18T03:08:47;3.30;99.90
6375;DHT22;35400;45.472;-122.822;2022-12-18T03:11:17;3.40;99.90
6375;DHT22;35400;45.472;-122.822;2022-12-18T03:14:07;3.30;99.90
6375;DHT22;35400;45.472;-122.822;2022-12-18T03:16:35;3.30;99.90
6375;DHT22;35400;45.472;-122.822;2022-12-18T03:19:12;3.30;99.90
6375;DHT22;35400;45.472;-122.822;2022-12-18T03:21:47;3.30;99.90
6375;DHT22;35400;45.472;-122.822;2022-12-18T03:24:17;3.30;99.90
6375;DHT22;35400;45.472;-122.822;2022-12-18T03:26:49;3.30;99.90
6375;DHT22;35400;45.472;-122.822;2022-12-18T03:29:23;3.30;99.90
6375;DHT22;35400;45.472;-122.822;2022-12-18T03:31:55;3.30;99.90
6375;DHT22;35400;45.472;-122.822;2022-12-18T03:34:32;3.30;99.90
6375;DHT22;35400;45.472;-122.822;2022-12-18T03:37:03;3.30;99.90
6375;DHT22;35400;45.472;-122.822;2022-12-18T03:39:33;3.30;99.90
6375;DHT22;35400;45.472;-122.822;2022-12-18T03:45:02;3.30;99.90
6375;DHT22;35400;45.472;-122.822;2022-12-18T03:55:52;3.30;99.90
6375;DHT22;35400;45.472;-122.822;2022-12-18T03:58:24;3.30;99.90
6375;DHT22;35400;45.472;-122.822;2022-12-18T04:01:12;3.30;99.90
6375;DHT22;35400;45.472;-122.822;2022-12-18T04:03:42;3.30;99.90
6375;DHT22;35400;45.472;-122.822;2022-12-18T04:06:10;3.30;99.90
6375;DHT22;35400;45.472;-122.822;2022-12-18T04:08:40;3.30;99.90
6375;DHT22;35400;45.472;-122.822;2022-12-18T04:11:10;3.30;99.90
6375;DHT22;35400;45.472;-122.822;2022-12-18T04:13:38;3.30;99.90
6375;DHT22;35400;45.472;-122.822;2022-12-18T04:16:10;3.20;99.90
6375;DHT22;35400;45.472;-122.822;2022-12-18T04:18:40;3.20;99.90
6375;DHT22;35400;45.472;-122.822;2022-12-18T04:21:09;3.30;99.90
6375;DHT22;35400;45.472;-122.822;2022-12-18T04:23:37;3.30;99.90
6375;DHT22;35400;45.472;-122.822;2022-12-18T04:26:04;3.30;99.90
6375;DHT22;35400;45.472;-122.822;2022-12-18T04:28:49;3.30;99.90
6375;DHT22;35400;45.472;-122.822;2022-12-18T04:31:16;3.30;99.90
6375;DHT22;35400;45.472;-122.822;2022-12-18T04:33:43;3.30;99.90
6375;DHT22;35400;45.472;-122.822;2022-12-18T04:36:10;3.30;99.90
6375;DHT22;35400;45.472;-122.822;2022-12-18T04:38:39;3.20;99.90
6375;DHT22;35400;45.472;-122.822;2022-12-18T04:41:12;3.20;99.90
6375;DHT22;35400;45.472;-122.822;2022-12-18T04:43:40;3.20;99.90
6375;DHT22;35400;45.472;-122.822;2022-12-18T04:46:08;3.20;99.90
6375;DHT22;35400;45.472;-122.822;2022-12-18T04:48:36;3.20;99.90
6375;DHT22;35400;45.472;-122.822;2022-12-18T04:51:04;3.20;99.90
6375;DHT22;35400;45.472;-122.822;2022-12-18T04:53:31;3.20;99.90
6375;DHT22;35400;45.472;-122.822;2022-12-18T04:56:07;3.30;99.90
6375;DHT22;35400;45.472;-122.822;2022-12-18T04:58:36;3.30;99.90
6375;DHT22;35400;45.472;-122.822;2022-12-18T05:01:04;3.30;99.90
6375;DHT22;35400;45.472;-122.822;2022-12-18T05:03:31;3.30;99.90
6375;DHT22;35400;45.472;-122.822;2022-12-18T05:05:59;3.30;99.90
6375;DHT22;35400;45.472;-122.822;2022-12-18T05:08:26;3.30;99.90
6375;DHT22;35400;45.472;-122.822;2022-12-18T05:11:04;3.30;99.90
6375;DHT22;35400;45.472;-122.822;2022-12-18T05:13:33;3.30;99.90
6375;DHT22;35400;45.472;-122.822;2022-12-18T05:16:00;3.30;99.90
6375;DHT22;35400;45.472;-122.822;2022-12-18T05:18:27;3.30;99.90
6375;DHT22;35400;45.472;-122.822;2022-12-18T05:20:55;3.30;99.90
6375;DHT22;35400;45.472;-122.822;2022-12-18T05:23:23;3.30;99.90
6375;DHT22;35400;45.472;-122.822;2022-12-18T05:28:20;3.30;99.90
6375;DHT22;35400;45.472;-122.822;2022-12-18T05:30:51;3.30;99.90
6375;DHT22;35400;45.472;-122.822;2022-12-18T05:33:19;3.30;99.90
6375;DHT22;35400;45.472;-122.822;2022-12-18T05:35:54;3.30;99.90
6375;DHT22;35400;45.472;-122.822;2022-12-18T05:38:23;3.30;99.90
6375;DHT22;35400;45.472;-122.822;2022-12-18T05:40:51;3.30;99.90
6375;DHT22;35400;45.472;-122.822;2022-12-18T05:43:19;3.30;99.90
6375;DHT22;35400;45.472;-122.822;2022-12-18T05:45:46;3.30;99.90
6375;DHT22;35400;45.472;-122.822;2022-12-18T05:48:13;3.30;99.90
6375;DHT22;35400;45.472;-122.822;2022-12-18T05:50:42;3.30;99.90
6375;DHT22;35400;45.472;-122.822;2022-12-18T05:53:12;3.30;99.90
6375;DHT22;35400;45.472;-122.822;2022-12-18T05:55:40;3.30;99.90
6375;DHT22;35400;45.472;-122.822;2022-12-18T05:58:09;3.30;99.90
6375;DHT22;35400;45.472;-122.822;2022-12-18T06:00:37;3.30;99.90
6375;DHT22;35400;45.472;-122.822;2022-12-18T06:03:08;3.30;99.90
6375;DHT22;35400;45.472;-122.822;2022-12-18T06:05:38;3.30;99.90
6375;DHT22;35400;45.472;-122.822;2022-12-18T06:08:06;3.30;99.90
6375;DHT22;35400;45.472;-122.822;2022-12-18T06:10:33;3.30;99.90
6375;DHT22;35400;45.472;-122.822;2022-12-18T06:13:00;3.30;99.90
6375;DHT22;35400;45.472;-122.822;2022-12-18T06:15:27;3.30;99.90
6375;DHT22;35400;45.472;-122.822;2022-12-18T06:17:54;3.30;99.90
6375;DHT22;35400;45.472;-122.822;2022-12-18T06:20:21;3.30;99.90
6375;DHT22;35400;45.472;-122.822;2022-12-18T06:22:48;3.30;99.90
6375;DHT22;35400;45.472;-122.822;2022-12-18T06:25:15;3.30;99.90
6375;DHT22;35400;45.472;-122.822;2022-12-18T06:27:42;3.30;99.90
6375;DHT22;35400;45.472;-122.822;2022-12-18T06:30:10;3.30;99.90
6375;DHT22;35400;45.472;-122.822;2022-12-18T06:32:37;3.30;99.90
6375;DHT22;35400;45.472;-122.822;2022-12-18T06:35:04;3.30;99.90
6375;DHT22;35400;45.472;-122.822;2022-12-18T06:37:32;3.30;99.90
6375;DHT22;35400;45.472;-122.822;2022-12-18T06:39:59;3.30;99.90
6375;DHT22;35400;45.472;-122.822;2022-12-18T06:42:28;3.30;99.90
6375;DHT22;35400;45.472;-122.822;2022-12-18T06:44:54;3.30;99.90
6375;DHT22;35400;45.472;-122.822;2022-12-18T06:47:21;3.30;99.90
6375;DHT22;35400;45.472;-122.822;2022-12-18T06:49:48;3.30;99.90
6375;DHT22;35400;45.472;-122.822;2022-12-18T06:52:15;3.30;99.90
6375;DHT22;35400;45.472;-122.822;2022-12-18T06:54:42;3.30;99.90
6375;DHT22;35400;45.472;-122.822;2022-12-18T06:57:09;3.30;99.90
6375;DHT22;35400;45.472;-122.822;2022-12-18T06:59:36;3.30;99.90
6375;DHT22;35400;45.472;-122.822;2022-12-18T07:02:03;3.30;99.90
6375;DHT22;35400;45.472;-122.822;2022-12-18T07:04:31;3.30;99.90
6375;DHT22;35400;45.472;-122.822;2022-12-18T07:06:58;3.30;99.90
6375;DHT22;35400;45.472;-122.822;2022-12-18T07:09:25;3.30;99.90
6375;DHT22;35400;45.472;-122.822;2022-12-18T07:11:52;3.30;99.90
6375;DHT22;35400;45.472;-122.822;2022-12-18T07:14:19;3.30;99.90
6375;DHT22;35400;45.472;-122.822;2022-12-18T07:16:46;3.30;99.90
6375;DHT22;35400;45.472;-122.822;2022-12-18T07:19:13;3.30;99.90
6375;DHT22;35400;45.472;-122.822;2022-12-18T07:21:40;3.30;99.90
6375;DHT22;35400;45.472;-122.822;2022-12-18T07:24:07;3.20;99.90
6375;DHT22;35400;45.472;-122.822;2022-12-18T07:26:34;3.20;99.90
6375;DHT22;35400;45.472;-122.822;2022-12-18T07:29:01;3.20;99.90
6375;DHT22;35400;45.472;-122.822;2022-12-18T07:31:28;3.20;99.90
6375;DHT22;35400;45.472;-122.822;2022-12-18T07:33:55;3.20;99.90
6375;DHT22;35400;45.472;-122.822;2022-12-18T07:36:22;3.20;99.90
6375;DHT22;35400;45.472;-122.822;2022-12-18T07:38:50;3.20;99.90
6375;DHT22;35400;45.472;-122.822;2022-12-18T07:41:18;3.10;99.90
6375;DHT22;35400;45.472;-122.822;2022-12-18T07:43:45;3.10;99.90
6375;DHT22;35400;45.472;-122.822;2022-12-18T07:46:13;3.10;99.90
6375;DHT22;35400;45.472;-122.822;2022-12-18T07:48:41;3.10;99.90
6375;DHT22;35400;45.472;-122.822;2022-12-18T07:51:08;3.10;99.90
6375;DHT22;35400;45.472;-122.822;2022-12-18T07:53:38;3.00;99.90
6375;DHT22;35400;45.472;-122.822;2022-12-18T07:56:09;3.00;99.90
6375;DHT22;35400;45.472;-122.822;2022-12-18T07:58:36;3.00;99.90
6375;DHT22;35400;45.472;-122.822;2022-12-18T08:01:10;3.00;99.90
6375;DHT22;35400;45.472;-122.822;2022-12-18T08:03:40;3.00;99.90
6375;DHT22;35400;45.472;-122.822;2022-12-18T08:06:09;3.00;99.90
6375;DHT22;35400;45.472;-122.822;2022-12-18T08:08:36;3.00;99.90
6375;DHT22;35400;45.472;-122.822;2022-12-18T08:11:03;3.00;99.90
6375;DHT22;35400;45.472;-122.822;2022-12-18T08:13:30;3.00;99.90
6375;DHT22;35400;45.472;-122.822;2022-12-18T08:15:58;3.00;99.90
6375;DHT22;35400;45.472;-122.822;2022-12-18T08:18:25;3.00;99.90
6375;DHT22;35400;45.472;-122.822;2022-12-18T08:20:52;3.10;99.90
6375;DHT22;35400;45.472;-122.822;2022-12-18T08:23:19;3.10;99.90
6375;DHT22;35400;45.472;-122.822;2022-12-18T08:25:46;3.10;99.90
6375;DHT22;35400;45.472;-122.822;2022-12-18T08:28:13;3.10;99.90
6375;DHT22;35400;45.472;-122.822;2022-12-18T08:30:43;3.10;99.90
6375;DHT22;35400;45.472;-122.822;2022-12-18T08:33:10;3.10;99.90
6375;DHT22;35400;45.472;-122.822;2022-12-18T08:35:37;3.10;99.90
6375;DHT22;35400;45.472;-122.822;2022-12-18T08:38:04;3.10;99.90
6375;DHT22;35400;45.472;-122.822;2022-12-18T08:40:31;3.10;99.90
6375;DHT22;35400;45.472;-122.822;2022-12-18T08:42:58;3.10;99.90
6375;DHT22;35400;45.472;-122.822;2022-12-18T08:45:43;3.10;99.90
6375;DHT22;35400;45.472;-122.822;2022-12-18T08:48:10;3.10;99.90
6375;DHT22;35400;45.472;-122.822;2022-12-18T08:50:36;3.20;99.90
6375;DHT22;35400;45.472;-122.822;2022-12-18T08:53:04;3.20;99.90
6375;DHT22;35400;45.472;-122.822;2022-12-18T08:55:31;3.20;99.90
6375;DHT22;35400;45.472;-122.822;2022-12-18T08:57:57;3.20;99.90
6375;DHT22;35400;45.472;-122.822;2022-12-18T09:00:24;3.20;99.90
6375;DHT22;35400;45.472;-122.822;2022-12-18T09:02:51;3.20;99.90
6375;DHT22;35400;45.472;-122.822;2022-12-18T09:05:18;3.20;99.90
6375;DHT22;35400;45.472;-122.822;2022-12-18T09:07:45;3.20;99.90
6375;DHT22;35400;45.472;-122.822;2022-12-18T09:10:12;3.20;99.90
6375;DHT22;35400;45.472;-122.822;2022-12-18T09:12:42;3.20;99.90
6375;DHT22;35400;45.472;-122.822;2022-12-18T09:15:09;3.10;99.90
6375;DHT22;35400;45.472;-122.822;2022-12-18T09:17:36;3.20;99.90
6375;DHT22;35400;45.472;-122.822;2022-12-18T09:20:04;3.10;99.90
6375;DHT22;35400;45.472;-122.822;2022-12-18T09:22:31;3.10;99.90
6375;DHT22;35400;45.472;-122.822;2022-12-18T09:24:58;3.10;99.90
6375;DHT22;35400;45.472;-122.822;2022-12-18T09:27:25;3.10;99.90
6375;DHT22;35400;45.472;-122.822;2022-12-18T09:29:52;3.10;99.90
6375;DHT22;35400;45.472;-122.822;2022-12-18T09:32:18;3.00;99.90
6375;DHT22;35400;45.472;-122.822;2022-12-18T09:34:46;3.00;99.90
6375;DHT22;35400;45.472;-122.822;2022-12-18T09:37:13;3.00;99.90
6375;DHT22;35400;45.472;-122.822;2022-12-18T09:39:39;3.00;99.90
6375;DHT22;35400;45.472;-122.822;2022-12-18T09:42:17;3.00;99.90
6375;DHT22;35400;45.472;-122.822;2022-12-18T09:44:50;2.90;99.90
6375;DHT22;35400;45.472;-122.822;2022-12-18T09:47:38;2.90;99.90
6375;DHT22;35400;45.472;-122.822;2022-12-18T09:50:16;2.90;99.90
6375;DHT22;35400;45.472;-122.822;2022-12-18T09:52:48;2.90;99.90
6375;DHT22;35400;45.472;-122.822;2022-12-18T09:58:00;2.90;99.90
6375;DHT22;35400;45.472;-122.822;2022-12-18T10:00:29;2.90;99.90
6375;DHT22;35400;45.472;-122.822;2022-12-18T10:03:08;2.90;99.90
6375;DHT22;35400;45.472;-122.822;2022-12-18T10:05:59;2.90;99.90
6375;DHT22;35400;45.472;-122.822;2022-12-18T10:11:38;2.90;99.90
6375;DHT22;35400;45.472;-122.822;2022-12-18T10:14:36;2.90;99.90
6375;DHT22;35400;45.472;-122.822;2022-12-18T10:28:20;3.00;99.90
6375;DHT22;35400;45.472;-122.822;2022-12-18T10:30:47;3.00;99.90
6375;DHT22;35400;45.472;-122.822;2022-12-18T10:33:18;3.00;99.90
6375;DHT22;35400;45.472;-122.822;2022-12-18T10:35:48;3.00;99.90
6375;DHT22;35400;45.472;-122.822;2022-12-18T10:43:33;3.10;99.90
6375;DHT22;35400;45.472;-122.822;2022-12-18T10:51:25;3.10;99.90
6375;DHT22;35400;45.472;-122.822;2022-12-18T10:54:18;3.10;99.90
6375;DHT22;35400;45.472;-122.822;2022-12-18T10:56:46;3.00;99.90
6375;DHT22;35400;45.472;-122.822;2022-12-18T10:59:15;3.00;99.90
6375;DHT22;35400;45.472;-122.822;2022-12-18T11:04:25;3.00;99.90
6375;DHT22;35400;45.472;-122.822;2022-12-18T11:07:12;3.10;99.90
6375;DHT22;35400;45.472;-122.822;2022-12-18T11:09:40;3.00;99.90
6375;DHT22;35400;45.472;-122.822;2022-12-18T11:17:40;3.00;99.90
6375;DHT22;35400;45.472;-122.822;2022-12-18T11:20:34;3.00;99.90
6375;DHT22;35400;45.472;-122.822;2022-12-18T11:23:05;3.00;99.90
6375;DHT22;35400;45.472;-122.822;2022-12-18T11:25:33;3.00;99.90
6375;DHT22;35400;45.472;-122.822;2022-12-18T11:28:24;3.00;99.90
6375;DHT22;35400;45.472;-122.822;2022-12-18T11:30:49;3.10;99.90
6375;DHT22;35400;45.472;-122.822;2022-12-18T11:33:21;3.10;99.90
6375;DHT22;35400;45.472;-122.822;2022-12-18T11:38:22;3.00;99.90
6375;DHT22;35400;45.472;-122.822;2022-12-18T11:41:21;3.10;99.90
6375;DHT22;35400;45.472;-122.822;2022-12-18T11:44:22;3.10;99.90
6375;DHT22;35400;45.472;-122.822;2022-12-18T11:47:00;3.10;99.90
6375;DHT22;35400;45.472;-122.822;2022-12-18T11:49:35;3.20;99.90
6375;DHT22;35400;45.472;-122.822;2022-12-18T11:52:26;3.20;99.90
6375;DHT22;35400;45.472;-122.822;2022-12-18T11:54:58;3.20;99.90
6375;DHT22;35400;45.472;-122.822;2022-12-18T12:00:21;3.30;99.90
6375;DHT22;35400;45.472;-122.822;2022-12-18T12:03:18;3.40;99.90
6375;DHT22;35400;45.472;-122.822;2022-12-18T12:08:49;3.40;99.90
6375;DHT22;35400;45.472;-122.822;2022-12-18T12:14:23;3.50;99.90
6375;DHT22;35400;45.472;-122.822;2022-12-18T12:17:02;3.50;99.90
6375;DHT22;35400;45.472;-122.822;2022-12-18T12:25:20;3.60;99.90
6375;DHT22;35400;45.472;-122.822;2022-12-18T12:28:54;3.60;99.90
6375;DHT22;35400;45.472;-122.822;2022-12-18T12:36:30;3.70;99.90
6375;DHT22;35400;45.472;-122.822;2022-12-18T12:39:06;3.70;99.90
6375;DHT22;35400;45.472;-122.822;2022-12-18T12:41:35;3.70;99.90
6375;DHT22;35400;45.472;-122.822;2022-12-18T12:44:28;3.70;99.90
6375;DHT22;35400;45.472;-122.822;2022-12-18T12:47:00;3.70;99.90
6375;DHT22;35400;45.472;-122.822;2022-12-18T12:49:32;3.70;99.90
6375;DHT22;35400;45.472;-122.822;2022-12-18T12:52:10;3.70;99.90
6375;DHT22;35400;45.472;-122.822;2022-12-18T12:54:39;3.70;99.90
6375;DHT22;35400;45.472;-122.822;2022-12-18T12:57:12;3.70;99.90
6375;DHT22;35400;45.472;-122.822;2022-12-18T13:07:37;3.70;99.90
6375;DHT22;35400;45.472;-122.822;2022-12-18T13:10:24;3.70;99.90
6375;DHT22;35400;45.472;-122.822;2022-12-18T13:20:41;3.70;99.90
6375;DHT22;35400;45.472;-122.822;2022-12-18T13:25:58;3.80;99.90
6375;DHT22;35400;45.472;-122.822;2022-12-18T13:34:22;3.80;99.90
6375;DHT22;35400;45.472;-122.822;2022-12-18T13:36:49;3.80;99.90
6375;DHT22;35400;45.472;-122.822;2022-12-18T13:45:00;3.90;99.90
6375;DHT22;35400;45.472;-122.822;2022-12-18T13:47:33;3.90;99.90
6375;DHT22;35400;45.472;-122.822;2022-12-18T13:50:21;3.90;99.90
6375;DHT22;35400;45.472;-122.822;2022-12-18T13:52:52;3.90;99.90
6375;DHT22;35400;45.472;-122.822;2022-12-18T13:55:21;3.90;99.90
6375;DHT22;35400;45.472;-122.822;2022-12-18T13:57:48;3.90;99.90
6375;DHT22;35400;45.472;-122.822;2022-12-18T14:00:29;3.90;99.90
6375;DHT22;35400;45.472;-122.822;2022-12-18T14:02:58;3.90;99.90
6375;DHT22;35400;45.472;-122.822;2022-12-18T14:05:30;3.90;99.90
6375;DHT22;35400;45.472;-122.822;2022-12-18T14:08:07;3.90;99.90
6375;DHT22;35400;45.472;-122.822;2022-12-18T14:10:44;3.90;99.90
6375;DHT22;35400;45.472;-122.822;2022-12-18T14:13:23;3.90;99.90
6375;DHT22;35400;45.472;-122.822;2022-12-18T14:15:51;3.90;99.90
6375;DHT22;35400;45.472;-122.822;2022-12-18T14:20:45;3.90;99.90
6375;DHT22;35400;45.472;-122.822;2022-12-18T14:25:59;3.90;99.90
6375;DHT22;35400;45.472;-122.822;2022-12-18T14:28:26;3.90;99.90
6375;DHT22;35400;45.472;-122.822;2022-12-18T14:30:53;3.90;99.90
6375;DHT22;35400;45.472;-122.822;2022-12-18T14:33:23;3.90;99.90
6375;DHT22;35400;45.472;-122.822;2022-12-18T14:38:39;3.90;99.90
6375;DHT22;35400;45.472;-122.822;2022-12-18T14:41:15;3.90;99.90
6375;DHT22;35400;45.472;-122.822;2022-12-18T14:43:44;3.90;99.90
6375;DHT22;35400;45.472;-122.822;2022-12-18T14:46:36;3.90;99.90
6375;DHT22;35400;45.472;-122.822;2022-12-18T14:51:55;3.90;99.90
6375;DHT22;35400;45.472;-122.822;2022-12-18T14:54:27;3.90;99.90
6375;DHT22;35400;45.472;-122.822;2022-12-18T14:59:40;3.90;99.90
6375;DHT22;35400;45.472;-122.822;2022-12-18T15:02:22;3.90;99.90
6375;DHT22;35400;45.472;-122.822;2022-12-18T15:07:50;3.90;99.90
6375;DHT22;35400;45.472;-122.822;2022-12-18T15:10:20;3.90;99.90
6375;DHT22;35400;45.472;-122.822;2022-12-18T15:20:49;3.90;99.90
6375;DHT22;35400;45.472;-122.822;2022-12-18T15:26:06;3.90;99.90
6375;DHT22;35400;45.472;-122.822;2022-12-18T15:28:37;3.90;99.90
6375;DHT22;35400;45.472;-122.822;2022-12-18T15:36:23;3.90;99.90
6375;DHT22;35400;45.472;-122.822;2022-12-18T15:38:51;3.90;99.90
6375;DHT22;35400;45.472;-122.822;2022-12-18T15:41:20;3.90;99.90
6375;DHT22;35400;45.472;-122.822;2022-12-18T15:43:51;3.90;99.90
6375;DHT22;35400;45.472;-122.822;2022-12-18T15:46:24;3.90;99.90
6375;DHT22;35400;45.472;-122.822;2022-12-18T15:48:55;3.90;99.90
6375;DHT22;35400;45.472;-122.822;2022-12-18T15:51:31;3.90;99.90
6375;DHT22;35400;45.472;-122.822;2022-12-18T15:54:01;3.90;99.90
6375;DHT22;35400;45.472;-122.822;2022-12-18T15:56:30;3.90;99.90
6375;DHT22;35400;45.472;-122.822;2022-12-18T15:59:17;3.90;99.90
6375;DHT22;35400;45.472;-122.822;2022-12-18T16:01:47;3.90;99.90
6375;DHT22;35400;45.472;-122.822;2022-12-18T16:04:17;3.90;99.90
6375;DHT22;35400;45.472;-122.822;2022-12-18T16:06:47;3.90;99.90
6375;DHT22;35400;45.472;-122.822;2022-12-18T16:09:14;3.90;99.90
6375;DHT22;35400;45.472;-122.822;2022-12-18T16:11:43;3.90;99.90
6375;DHT22;35400;45.472;-122.822;2022-12-18T16:17:12;4.00;99.90
6375;DHT22;35400;45.472;-122.822;2022-12-18T16:19:40;4.00;99.90
6375;DHT22;35400;45.472;-122.822;2022-12-18T16:22:27;4.00;99.90
6375;DHT22;35400;45.472;-122.822;2022-12-18T16:24:55;4.00;99.90
6375;DHT22;35400;45.472;-122.822;2022-12-18T16:27:23;4.00;99.90
6375;DHT22;35400;45.472;-122.822;2022-12-18T16:29:50;4.00;99.90
6375;DHT22;35400;45.472;-122.822;2022-12-18T16:32:20;4.00;99.90
6375;DHT22;35400;45.472;-122.822;2022-12-18T16:34:47;4.00;99.90
6375;DHT22;35400;45.472;-122.822;2022-12-18T16:37:15;4.00;99.90
6375;DHT22;35400;45.472;-122.822;2022-12-18T16:39:43;4.00;99.90
6375;DHT22;35400;45.472;-122.822;2022-12-18T16:42:13;4.00;99.90
6375;DHT22;35400;45.472;-122.822;2022-12-18T16:44:43;4.00;99.90
6375;DHT22;35400;45.472;-122.822;2022-12-18T16:47:10;4.10;99.90
6375;DHT22;35400;45.472;-122.822;2022-12-18T16:49:37;4.10;99.90
6375;DHT22;35400;45.472;-122.822;2022-12-18T16:52:04;4.10;99.90
6375;DHT22;35400;45.472;-122.822;2022-12-18T16:54:32;4.10;99.90
6375;DHT22;35400;45.472;-122.822;2022-12-18T16:57:00;4.10;99.90
6375;DHT22;35400;45.472;-122.822;2022-12-18T16:59:27;4.10;99.90
6375;DHT22;35400;45.472;-122.822;2022-12-18T17:01:54;4.20;99.90
6375;DHT22;35400;45.472;-122.822;2022-12-18T17:04:23;4.20;99.90
6375;DHT22;35400;45.472;-122.822;2022-12-18T17:06:50;4.20;99.90
6375;DHT22;35400;45.472;-122.822;2022-12-18T17:09:21;4.20;99.90
6375;DHT22;35400;45.472;-122.822;2022-12-18T17:11:52;4.30;99.90
6375;DHT22;35400;45.472;-122.822;2022-12-18T17:14:21;4.30;99.90
6375;DHT22;35400;45.472;-122.822;2022-12-18T17:16:49;4.30;99.90
6375;DHT22;35400;45.472;-122.822;2022-12-18T17:19:16;4.30;99.90
6375;DHT22;35400;45.472;-122.822;2022-12-18T17:21:44;4.30;99.90
6375;DHT22;35400;45.472;-122.822;2022-12-18T17:24:12;4.30;99.90
6375;DHT22;35400;45.472;-122.822;2022-12-18T17:26:39;4.30;99.90
6375;DHT22;35400;45.472;-122.822;2022-12-18T17:29:07;4.40;99.90
6375;DHT22;35400;45.472;-122.822;2022-12-18T17:31:34;4.40;99.90
6375;DHT22;35400;45.472;-122.822;2022-12-18T17:34:01;4.50;99.90
6375;DHT22;35400;45.472;-122.822;2022-12-18T17:36:29;4.50;99.90
6375;DHT22;35400;45.472;-122.822;2022-12-18T17:39:00;4.50;99.90
6375;DHT22;35400;45.472;-122.822;2022-12-18T17:41:29;4.60;99.90
6375;DHT22;35400;45.472;-122.822;2022-12-18T17:43:59;4.60;99.90
6375;DHT22;35400;45.472;-122.822;2022-12-18T17:46:29;4.60;99.90
6375;DHT22;35400;45.472;-122.822;2022-12-18T17:48:57;4.70;99.90
6375;DHT22;35400;45.472;-122.822;2022-12-18T17:51:25;4.70;99.90
6375;DHT22;35400;45.472;-122.822;2022-12-18T17:53:52;4.70;99.90
6375;DHT22;35400;45.472;-122.822;2022-12-18T17:56:21;4.70;99.90
6375;DHT22;35400;45.472;-122.822;2022-12-18T17:58:49;4.80;99.90
6375;DHT22;35400;45.472;-122.822;2022-12-18T18:01:19;4.80;99.90
6375;DHT22;35400;45.472;-122.822;2022-12-18T18:03:46;4.90;99.90
6375;DHT22;35400;45.472;-122.822;2022-12-18T18:06:13;4.90;99.90
6375;DHT22;35400;45.472;-122.822;2022-12-18T18:08:41;4.90;99.90
6375;DHT22;35400;45.472;-122.822;2022-12-18T18:11:12;5.00;99.90